sensor_id;sensor_type;location;lat;lon;timestamp;P1;durP1;ratioP1;P2;durP2;ratioP2
58954;SDS011;45815;52.334;5.024;2024-01-30T00:02:22;23.45;;;12.68;;
58954;SDS011;45815;52.334;5.024;2024-01-30T00:04:47;18.77;;;12.55;;
58954;SDS011;45815;52.334;5.024;2024-01-30T00:07:13;19.08;;;12.75;;
58954;SDS011;45815;52.334;5.024;2024-01-30T00:09:38;20.35;;;14.18;;
58954;SDS011;45815;52.334;5.024;2024-01-30T00:12:07;19.55;;;12.35;;
58954;SDS011;45815;52.334;5.024;2024-01-30T00:14:32;21.25;;;12.52;;
58954;SDS011;45815;52.334;5.024;2024-01-30T00:16:58;22.55;;;12.18;;
58954;SDS011;45815;52.334;5.024;2024-01-30T00:19:23;19.45;;;12.45;;
58954;SDS011;45815;52.334;5.024;2024-01-30T00:21:48;19.15;;;12.55;;
58954;SDS011;45815;52.334;5.024;2024-01-30T00:24:14;22.35;;;13.40;;
58954;SDS011;45815;52.334;5.024;2024-01-30T00:26:39;19.73;;;12.18;;
58954;SDS011;45815;52.334;5.024;2024-01-30T00:29:05;19.35;;;12.30;;
58954;SDS011;45815;52.334;5.024;2024-01-30T00:31:30;20.80;;;12.25;;
58954;SDS011;45815;52.334;5.024;2024-01-30T00:33:55;22.17;;;12.95;;
58954;SDS011;45815;52.334;5.024;2024-01-30T00:36:21;18.15;;;12.65;;
58954;SDS011;45815;52.334;5.024;2024-01-30T00:38:46;21.15;;;12.45;;
58954;SDS011;45815;52.334;5.024;2024-01-30T00:41:12;19.85;;;12.55;;
58954;SDS011;45815;52.334;5.024;2024-01-30T00:43:38;19.30;;;11.38;;
58954;SDS011;45815;52.334;5.024;2024-01-30T00:46:03;20.20;;;11.70;;
58954;SDS011;45815;52.334;5.024;2024-01-30T00:48:29;19.02;;;11.20;;
58954;SDS011;45815;52.334;5.024;2024-01-30T00:50:54;19.30;;;11.75;;
58954;SDS011;45815;52.334;5.024;2024-01-30T00:53:20;25.77;;;12.43;;
58954;SDS011;45815;52.334;5.024;2024-01-30T00:55:45;18.80;;;11.85;;
58954;SDS011;45815;52.334;5.024;2024-01-30T00:58:11;17.20;;;11.50;;
58954;SDS011;45815;52.334;5.024;2024-01-30T01:00:36;20.92;;;12.30;;
58954;SDS011;45815;52.334;5.024;2024-01-30T01:03:02;18.10;;;11.40;;
58954;SDS011;45815;52.334;5.024;2024-01-30T01:05:27;21.27;;;11.68;;
58954;SDS011;45815;52.334;5.024;2024-01-30T01:07:53;21.85;;;12.27;;
58954;SDS011;45815;52.334;5.024;2024-01-30T01:10:18;21.40;;;11.73;;
58954;SDS011;45815;52.334;5.024;2024-01-30T01:12:44;21.50;;;11.98;;
58954;SDS011;45815;52.334;5.024;2024-01-30T01:15:10;20.30;;;12.00;;
58954;SDS011;45815;52.334;5.024;2024-01-30T01:17:36;20.55;;;11.25;;
58954;SDS011;45815;52.334;5.024;2024-01-30T01:20:03;18.55;;;11.13;;
58954;SDS011;45815;52.334;5.024;2024-01-30T01:22:30;17.65;;;11.02;;
58954;SDS011;45815;52.334;5.024;2024-01-30T01:24:56;19.65;;;11.77;;
58954;SDS011;45815;52.334;5.024;2024-01-30T01:27:21;17.67;;;11.27;;
58954;SDS011;45815;52.334;5.024;2024-01-30T01:29:46;17.67;;;11.43;;
58954;SDS011;45815;52.334;5.024;2024-01-30T01:32:12;17.40;;;11.80;;
58954;SDS011;45815;52.334;5.024;2024-01-30T01:34:37;17.95;;;11.50;;
58954;SDS011;45815;52.334;5.024;2024-01-30T01:37:03;17.60;;;11.40;;
58954;SDS011;45815;52.334;5.024;2024-01-30T01:39:28;19.92;;;10.98;;
58954;SDS011;45815;52.334;5.024;2024-01-30T01:41:53;20.05;;;11.82;;
58954;SDS011;45815;52.334;5.024;2024-01-30T01:44:19;18.15;;;10.93;;
58954;SDS011;45815;52.334;5.024;2024-01-30T01:46:44;19.73;;;11.43;;
58954;SDS011;45815;52.334;5.024;2024-01-30T01:49:10;20.60;;;11.27;;
58954;SDS011;45815;52.334;5.024;2024-01-30T01:51:36;18.13;;;10.90;;
58954;SDS011;45815;52.334;5.024;2024-01-30T01:54:03;18.33;;;11.38;;
58954;SDS011;45815;52.334;5.024;2024-01-30T01:56:30;19.55;;;11.93;;
58954;SDS011;45815;52.334;5.024;2024-01-30T01:58:57;19.70;;;11.07;;
58954;SDS011;45815;52.334;5.024;2024-01-30T02:01:25;17.00;;;10.68;;
58954;SDS011;45815;52.334;5.024;2024-01-30T02:03:52;17.02;;;10.35;;
58954;SDS011;45815;52.334;5.024;2024-01-30T02:06:18;17.70;;;11.07;;
58954;SDS011;45815;52.334;5.024;2024-01-30T02:08:44;17.58;;;10.43;;
58954;SDS011;45815;52.334;5.024;2024-01-30T02:11:09;17.25;;;10.95;;
58954;SDS011;45815;52.334;5.024;2024-01-30T02:13:36;18.15;;;11.05;;
58954;SDS011;45815;52.334;5.024;2024-01-30T02:16:02;21.20;;;10.98;;
58954;SDS011;45815;52.334;5.024;2024-01-30T02:18:27;21.15;;;11.95;;
58954;SDS011;45815;52.334;5.024;2024-01-30T02:20:53;19.67;;;10.60;;
58954;SDS011;45815;52.334;5.024;2024-01-30T02:23:21;16.10;;;10.45;;
58954;SDS011;45815;52.334;5.024;2024-01-30T02:25:49;18.23;;;10.05;;
58954;SDS011;45815;52.334;5.024;2024-01-30T02:28:14;18.92;;;10.85;;
58954;SDS011;45815;52.334;5.024;2024-01-30T02:30:42;18.52;;;10.00;;
58954;SDS011;45815;52.334;5.024;2024-01-30T02:33:08;16.90;;;10.25;;
58954;SDS011;45815;52.334;5.024;2024-01-30T02:35:33;18.75;;;10.75;;
58954;SDS011;45815;52.334;5.024;2024-01-30T02:37:59;17.77;;;10.73;;
58954;SDS011;45815;52.334;5.024;2024-01-30T02:40:25;19.40;;;10.00;;
58954;SDS011;45815;52.334;5.024;2024-01-30T02:42:50;16.48;;;10.00;;
58954;SDS011;45815;52.334;5.024;2024-01-30T02:45:15;16.10;;;9.38;;
58954;SDS011;45815;52.334;5.024;2024-01-30T02:47:41;16.65;;;9.48;;
58954;SDS011;45815;52.334;5.024;2024-01-30T02:50:07;16.70;;;10.23;;
58954;SDS011;45815;52.334;5.024;2024-01-30T02:52:32;18.55;;;10.30;;
58954;SDS011;45815;52.334;5.024;2024-01-30T02:54:58;16.50;;;9.52;;
58954;SDS011;45815;52.334;5.024;2024-01-30T02:57:23;15.18;;;10.13;;
58954;SDS011;45815;52.334;5.024;2024-01-30T02:59:49;19.17;;;10.25;;
58954;SDS011;45815;52.334;5.024;2024-01-30T03:02:14;18.40;;;10.75;;
58954;SDS011;45815;52.334;5.024;2024-01-30T03:04:43;16.67;;;10.05;;
58954;SDS011;45815;52.334;5.024;2024-01-30T03:07:08;18.02;;;10.30;;
58954;SDS011;45815;52.334;5.024;2024-01-30T03:09:34;16.23;;;9.65;;
58954;SDS011;45815;52.334;5.024;2024-01-30T03:11:59;15.48;;;9.52;;
58954;SDS011;45815;52.334;5.024;2024-01-30T03:14:25;17.80;;;10.05;;
58954;SDS011;45815;52.334;5.024;2024-01-30T03:16:51;16.42;;;10.20;;
58954;SDS011;45815;52.334;5.024;2024-01-30T03:19:16;15.00;;;9.70;;
58954;SDS011;45815;52.334;5.024;2024-01-30T03:21:42;18.70;;;10.77;;
58954;SDS011;45815;52.334;5.024;2024-01-30T03:24:07;18.48;;;9.38;;
58954;SDS011;45815;52.334;5.024;2024-01-30T03:26:32;17.58;;;10.57;;
58954;SDS011;45815;52.334;5.024;2024-01-30T03:28:58;17.30;;;10.35;;
58954;SDS011;45815;52.334;5.024;2024-01-30T03:31:23;16.63;;;10.02;;
58954;SDS011;45815;52.334;5.024;2024-01-30T03:33:49;17.33;;;9.10;;
58954;SDS011;45815;52.334;5.024;2024-01-30T03:36:15;16.67;;;9.82;;
58954;SDS011;45815;52.334;5.024;2024-01-30T03:38:40;18.60;;;10.43;;
58954;SDS011;45815;52.334;5.024;2024-01-30T03:41:09;17.92;;;9.80;;
58954;SDS011;45815;52.334;5.024;2024-01-30T03:43:35;16.77;;;9.80;;
58954;SDS011;45815;52.334;5.024;2024-01-30T03:46:01;16.05;;;9.65;;
58954;SDS011;45815;52.334;5.024;2024-01-30T03:48:28;16.67;;;10.07;;
58954;SDS011;45815;52.334;5.024;2024-01-30T03:50:54;15.75;;;10.05;;
58954;SDS011;45815;52.334;5.024;2024-01-30T03:53:20;14.65;;;8.98;;
58954;SDS011;45815;52.334;5.024;2024-01-30T03:55:45;17.55;;;10.15;;
58954;SDS011;45815;52.334;5.024;2024-01-30T03:58:10;15.25;;;9.85;;
58954;SDS011;45815;52.334;5.024;2024-01-30T04:00:36;18.55;;;10.30;;
58954;SDS011;45815;52.334;5.024;2024-01-30T04:03:01;14.70;;;9.75;;
58954;SDS011;45815;52.334;5.024;2024-01-30T04:05:27;15.15;;;9.98;;
58954;SDS011;45815;52.334;5.024;2024-01-30T04:07:52;16.83;;;9.75;;
58954;SDS011;45815;52.334;5.024;2024-01-30T04:10:17;15.68;;;9.57;;
58954;SDS011;45815;52.334;5.024;2024-01-30T04:12:43;15.30;;;8.95;;
58954;SDS011;45815;52.334;5.024;2024-01-30T04:15:08;18.17;;;10.45;;
58954;SDS011;45815;52.334;5.024;2024-01-30T04:17:34;15.80;;;9.18;;
58954;SDS011;45815;52.334;5.024;2024-01-30T04:19:59;13.90;;;9.57;;
58954;SDS011;45815;52.334;5.024;2024-01-30T04:22:25;17.75;;;10.45;;
58954;SDS011;45815;52.334;5.024;2024-01-30T04:24:50;19.38;;;10.30;;
58954;SDS011;45815;52.334;5.024;2024-01-30T04:27:15;14.57;;;9.57;;
58954;SDS011;45815;52.334;5.024;2024-01-30T04:29:41;14.20;;;9.60;;
58954;SDS011;45815;52.334;5.024;2024-01-30T04:32:06;16.48;;;9.52;;
58954;SDS011;45815;52.334;5.024;2024-01-30T04:34:32;14.50;;;8.98;;
58954;SDS011;45815;52.334;5.024;2024-01-30T04:36:57;16.30;;;9.73;;
58954;SDS011;45815;52.334;5.024;2024-01-30T04:39:22;19.20;;;10.45;;
58954;SDS011;45815;52.334;5.024;2024-01-30T04:41:48;15.45;;;9.65;;
58954;SDS011;45815;52.334;5.024;2024-01-30T04:44:13;15.80;;;9.77;;
58954;SDS011;45815;52.334;5.024;2024-01-30T04:46:39;15.30;;;9.63;;
58954;SDS011;45815;52.334;5.024;2024-01-30T04:49:05;17.63;;;9.38;;
58954;SDS011;45815;52.334;5.024;2024-01-30T04:51:32;15.05;;;9.90;;
58954;SDS011;45815;52.334;5.024;2024-01-30T04:53:58;18.95;;;11.07;;
58954;SDS011;45815;52.334;5.024;2024-01-30T04:56:23;15.68;;;10.35;;
58954;SDS011;45815;52.334;5.024;2024-01-30T04:58:49;17.30;;;10.13;;
58954;SDS011;45815;52.334;5.024;2024-01-30T05:01:15;21.85;;;10.25;;
58954;SDS011;45815;52.334;5.024;2024-01-30T05:03:41;17.70;;;10.18;;
58954;SDS011;45815;52.334;5.024;2024-01-30T05:06:06;14.85;;;9.40;;
58954;SDS011;45815;52.334;5.024;2024-01-30T05:08:32;14.10;;;9.23;;
58954;SDS011;45815;52.334;5.024;2024-01-30T05:11:00;18.50;;;10.63;;
58954;SDS011;45815;52.334;5.024;2024-01-30T05:13:25;14.52;;;9.77;;
58954;SDS011;45815;52.334;5.024;2024-01-30T05:15:51;17.15;;;9.52;;
58954;SDS011;45815;52.334;5.024;2024-01-30T05:18:16;19.10;;;10.15;;
58954;SDS011;45815;52.334;5.024;2024-01-30T05:20:41;16.55;;;9.93;;
58954;SDS011;45815;52.334;5.024;2024-01-30T05:23:07;12.88;;;9.38;;
58954;SDS011;45815;52.334;5.024;2024-01-30T05:25:33;16.38;;;9.40;;
58954;SDS011;45815;52.334;5.024;2024-01-30T05:27:58;15.75;;;9.57;;
58954;SDS011;45815;52.334;5.024;2024-01-30T05:30:23;14.20;;;9.25;;
58954;SDS011;45815;52.334;5.024;2024-01-30T05:32:49;15.93;;;9.20;;
58954;SDS011;45815;52.334;5.024;2024-01-30T05:35:14;18.35;;;10.18;;
58954;SDS011;45815;52.334;5.024;2024-01-30T05:37:40;17.15;;;9.88;;
58954;SDS011;45815;52.334;5.024;2024-01-30T05:40:06;15.77;;;10.40;;
58954;SDS011;45815;52.334;5.024;2024-01-30T05:42:31;15.73;;;10.07;;
58954;SDS011;45815;52.334;5.024;2024-01-30T05:44:57;17.58;;;10.13;;
58954;SDS011;45815;52.334;5.024;2024-01-30T05:47:22;15.93;;;9.07;;
58954;SDS011;45815;52.334;5.024;2024-01-30T05:49:49;14.80;;;9.00;;
58954;SDS011;45815;52.334;5.024;2024-01-30T05:52:14;15.80;;;9.82;;
58954;SDS011;45815;52.334;5.024;2024-01-30T05:54:40;17.50;;;9.18;;
58954;SDS011;45815;52.334;5.024;2024-01-30T05:57:06;16.55;;;9.52;;
58954;SDS011;45815;52.334;5.024;2024-01-30T05:59:31;15.25;;;8.75;;
58954;SDS011;45815;52.334;5.024;2024-01-30T06:01:57;17.45;;;9.30;;
58954;SDS011;45815;52.334;5.024;2024-01-30T06:04:22;16.63;;;9.15;;
58954;SDS011;45815;52.334;5.024;2024-01-30T06:06:48;18.13;;;9.18;;
58954;SDS011;45815;52.334;5.024;2024-01-30T06:09:14;17.40;;;10.05;;
58954;SDS011;45815;52.334;5.024;2024-01-30T06:11:39;16.17;;;9.35;;
58954;SDS011;45815;52.334;5.024;2024-01-30T06:14:04;16.90;;;8.98;;
58954;SDS011;45815;52.334;5.024;2024-01-30T06:16:30;16.10;;;9.40;;
58954;SDS011;45815;52.334;5.024;2024-01-30T06:18:55;16.45;;;9.30;;
58954;SDS011;45815;52.334;5.024;2024-01-30T06:21:21;17.48;;;9.55;;
58954;SDS011;45815;52.334;5.024;2024-01-30T06:23:46;17.33;;;9.23;;
58954;SDS011;45815;52.334;5.024;2024-01-30T06:26:12;16.80;;;9.68;;
58954;SDS011;45815;52.334;5.024;2024-01-30T06:28:37;16.17;;;9.75;;
58954;SDS011;45815;52.334;5.024;2024-01-30T06:31:03;17.60;;;9.77;;
58954;SDS011;45815;52.334;5.024;2024-01-30T06:33:28;17.52;;;8.38;;
58954;SDS011;45815;52.334;5.024;2024-01-30T06:35:53;15.30;;;8.95;;
58954;SDS011;45815;52.334;5.024;2024-01-30T06:38:19;14.27;;;8.70;;
58954;SDS011;45815;52.334;5.024;2024-01-30T06:40:44;16.40;;;9.75;;
58954;SDS011;45815;52.334;5.024;2024-01-30T06:43:10;15.18;;;8.63;;
58954;SDS011;45815;52.334;5.024;2024-01-30T06:45:35;16.35;;;8.65;;
58954;SDS011;45815;52.334;5.024;2024-01-30T06:48:00;15.68;;;8.77;;
58954;SDS011;45815;52.334;5.024;2024-01-30T06:50:26;14.63;;;9.68;;
58954;SDS011;45815;52.334;5.024;2024-01-30T06:52:52;17.15;;;9.38;;
58954;SDS011;45815;52.334;5.024;2024-01-30T06:55:17;16.63;;;9.48;;
58954;SDS011;45815;52.334;5.024;2024-01-30T06:57:43;15.02;;;9.48;;
58954;SDS011;45815;52.334;5.024;2024-01-30T07:00:09;16.02;;;9.15;;
58954;SDS011;45815;52.334;5.024;2024-01-30T07:02:34;15.45;;;8.52;;
58954;SDS011;45815;52.334;5.024;2024-01-30T07:05:00;15.10;;;9.68;;
58954;SDS011;45815;52.334;5.024;2024-01-30T07:07:25;15.15;;;9.18;;
58954;SDS011;45815;52.334;5.024;2024-01-30T07:09:51;20.35;;;10.55;;
58954;SDS011;45815;52.334;5.024;2024-01-30T07:12:21;18.63;;;9.50;;
58954;SDS011;45815;52.334;5.024;2024-01-30T07:14:50;18.23;;;9.55;;
58954;SDS011;45815;52.334;5.024;2024-01-30T07:17:16;21.45;;;8.90;;
58954;SDS011;45815;52.334;5.024;2024-01-30T07:19:42;17.67;;;9.50;;
58954;SDS011;45815;52.334;5.024;2024-01-30T07:22:07;15.57;;;9.52;;
58954;SDS011;45815;52.334;5.024;2024-01-30T07:24:33;16.13;;;9.30;;
58954;SDS011;45815;52.334;5.024;2024-01-30T07:26:58;16.48;;;9.30;;
58954;SDS011;45815;52.334;5.024;2024-01-30T07:29:24;15.07;;;9.10;;
58954;SDS011;45815;52.334;5.024;2024-01-30T07:31:49;15.90;;;9.02;;
58954;SDS011;45815;52.334;5.024;2024-01-30T07:34:15;19.13;;;9.48;;
58954;SDS011;45815;52.334;5.024;2024-01-30T07:36:40;14.35;;;8.45;;
58954;SDS011;45815;52.334;5.024;2024-01-30T07:39:05;15.77;;;9.15;;
58954;SDS011;45815;52.334;5.024;2024-01-30T07:41:31;17.63;;;8.90;;
58954;SDS011;45815;52.334;5.024;2024-01-30T07:43:57;20.45;;;9.15;;
58954;SDS011;45815;52.334;5.024;2024-01-30T07:46:22;17.98;;;9.50;;
58954;SDS011;45815;52.334;5.024;2024-01-30T07:48:47;17.42;;;9.45;;
58954;SDS011;45815;52.334;5.024;2024-01-30T07:51:13;17.60;;;9.32;;
58954;SDS011;45815;52.334;5.024;2024-01-30T07:53:39;16.48;;;9.02;;
58954;SDS011;45815;52.334;5.024;2024-01-30T07:56:05;16.00;;;9.23;;
58954;SDS011;45815;52.334;5.024;2024-01-30T07:58:31;14.90;;;8.38;;
58954;SDS011;45815;52.334;5.024;2024-01-30T08:00:56;14.85;;;8.15;;
58954;SDS011;45815;52.334;5.024;2024-01-30T08:03:23;16.58;;;9.70;;
58954;SDS011;45815;52.334;5.024;2024-01-30T08:05:49;17.95;;;9.23;;
58954;SDS011;45815;52.334;5.024;2024-01-30T08:08:14;16.65;;;9.45;;
58954;SDS011;45815;52.334;5.024;2024-01-30T08:10:40;17.83;;;9.27;;
58954;SDS011;45815;52.334;5.024;2024-01-30T08:13:05;16.60;;;9.18;;
58954;SDS011;45815;52.334;5.024;2024-01-30T08:15:31;15.63;;;8.73;;
58954;SDS011;45815;52.334;5.024;2024-01-30T08:17:56;16.48;;;9.13;;
58954;SDS011;45815;52.334;5.024;2024-01-30T08:20:23;17.45;;;9.45;;
58954;SDS011;45815;52.334;5.024;2024-01-30T08:22:49;18.67;;;9.55;;
58954;SDS011;45815;52.334;5.024;2024-01-30T08:25:14;15.43;;;8.35;;
58954;SDS011;45815;52.334;5.024;2024-01-30T08:27:40;18.85;;;9.30;;
58954;SDS011;45815;52.334;5.024;2024-01-30T08:30:06;16.45;;;9.35;;
58954;SDS011;45815;52.334;5.024;2024-01-30T08:32:32;17.00;;;9.00;;
58954;SDS011;45815;52.334;5.024;2024-01-30T08:34:57;20.05;;;9.73;;
58954;SDS011;45815;52.334;5.024;2024-01-30T08:37:23;13.50;;;8.68;;
58954;SDS011;45815;52.334;5.024;2024-01-30T08:39:48;17.00;;;8.70;;
58954;SDS011;45815;52.334;5.024;2024-01-30T08:42:14;16.13;;;8.95;;
58954;SDS011;45815;52.334;5.024;2024-01-30T08:44:42;15.40;;;8.57;;
58954;SDS011;45815;52.334;5.024;2024-01-30T08:47:08;15.77;;;9.02;;
58954;SDS011;45815;52.334;5.024;2024-01-30T08:49:33;21.20;;;9.40;;
58954;SDS011;45815;52.334;5.024;2024-01-30T08:51:58;16.90;;;9.70;;
58954;SDS011;45815;52.334;5.024;2024-01-30T08:54:24;19.42;;;8.93;;
58954;SDS011;45815;52.334;5.024;2024-01-30T08:56:49;17.08;;;9.05;;
58954;SDS011;45815;52.334;5.024;2024-01-30T08:59:14;18.05;;;9.55;;
58954;SDS011;45815;52.334;5.024;2024-01-30T09:01:40;20.10;;;9.52;;
58954;SDS011;45815;52.334;5.024;2024-01-30T09:04:05;16.73;;;9.30;;
58954;SDS011;45815;52.334;5.024;2024-01-30T09:06:31;20.58;;;9.18;;
58954;SDS011;45815;52.334;5.024;2024-01-30T09:08:56;20.45;;;9.07;;
58954;SDS011;45815;52.334;5.024;2024-01-30T09:11:23;22.00;;;9.35;;
58954;SDS011;45815;52.334;5.024;2024-01-30T09:13:48;16.92;;;9.07;;
58954;SDS011;45815;52.334;5.024;2024-01-30T09:16:13;15.82;;;9.27;;
58954;SDS011;45815;52.334;5.024;2024-01-30T09:18:41;19.10;;;9.48;;
58954;SDS011;45815;52.334;5.024;2024-01-30T09:21:06;17.45;;;9.52;;
58954;SDS011;45815;52.334;5.024;2024-01-30T09:23:31;18.63;;;9.07;;
58954;SDS011;45815;52.334;5.024;2024-01-30T09:25:57;16.50;;;9.38;;
58954;SDS011;45815;52.334;5.024;2024-01-30T09:28:22;18.08;;;9.38;;
58954;SDS011;45815;52.334;5.024;2024-01-30T09:30:48;17.30;;;9.82;;
58954;SDS011;45815;52.334;5.024;2024-01-30T09:33:13;15.63;;;10.02;;
58954;SDS011;45815;52.334;5.024;2024-01-30T09:35:39;16.45;;;10.05;;
58954;SDS011;45815;52.334;5.024;2024-01-30T09:38:04;16.67;;;9.30;;
58954;SDS011;45815;52.334;5.024;2024-01-30T09:40:29;18.02;;;9.43;;
58954;SDS011;45815;52.334;5.024;2024-01-30T09:42:55;21.02;;;10.55;;
58954;SDS011;45815;52.334;5.024;2024-01-30T09:45:23;17.33;;;9.43;;
58954;SDS011;45815;52.334;5.024;2024-01-30T09:47:50;18.15;;;10.18;;
58954;SDS011;45815;52.334;5.024;2024-01-30T09:50:16;19.27;;;10.35;;
58954;SDS011;45815;52.334;5.024;2024-01-30T09:52:45;18.02;;;9.85;;
58954;SDS011;45815;52.334;5.024;2024-01-30T09:55:11;19.80;;;9.52;;
58954;SDS011;45815;52.334;5.024;2024-01-30T09:57:37;18.65;;;10.10;;
58954;SDS011;45815;52.334;5.024;2024-01-30T10:00:03;18.45;;;10.15;;
58954;SDS011;45815;52.334;5.024;2024-01-30T10:02:37;18.98;;;10.30;;
58954;SDS011;45815;52.334;5.024;2024-01-30T10:05:03;19.15;;;9.90;;
58954;SDS011;45815;52.334;5.024;2024-01-30T10:07:29;14.73;;;8.75;;
58954;SDS011;45815;52.334;5.024;2024-01-30T10:09:55;19.13;;;9.13;;
58954;SDS011;45815;52.334;5.024;2024-01-30T10:12:27;16.73;;;7.97;;
58954;SDS011;45815;52.334;5.024;2024-01-30T10:14:55;14.98;;;8.70;;
58954;SDS011;45815;52.334;5.024;2024-01-30T10:17:24;13.63;;;8.93;;
58954;SDS011;45815;52.334;5.024;2024-01-30T10:19:50;17.70;;;7.60;;
58954;SDS011;45815;52.334;5.024;2024-01-30T10:22:16;14.40;;;5.72;;
58954;SDS011;45815;52.334;5.024;2024-01-30T10:24:42;10.98;;;5.30;;
58954;SDS011;45815;52.334;5.024;2024-01-30T10:27:08;12.40;;;4.65;;
58954;SDS011;45815;52.334;5.024;2024-01-30T10:29:33;8.25;;;3.83;;
58954;SDS011;45815;52.334;5.024;2024-01-30T10:34:27;10.30;;;3.42;;
58954;SDS011;45815;52.334;5.024;2024-01-30T10:39:25;10.13;;;3.58;;
58954;SDS011;45815;52.334;5.024;2024-01-30T10:41:54;12.43;;;3.92;;
58954;SDS011;45815;52.334;5.024;2024-01-30T10:44:24;9.27;;;3.40;;
58954;SDS011;45815;52.334;5.024;2024-01-30T10:46:56;9.93;;;2.90;;
58954;SDS011;45815;52.334;5.024;2024-01-30T10:49:28;6.88;;;2.72;;
58954;SDS011;45815;52.334;5.024;2024-01-30T10:51:54;9.40;;;2.10;;
58954;SDS011;45815;52.334;5.024;2024-01-30T10:54:20;6.18;;;1.73;;
58954;SDS011;45815;52.334;5.024;2024-01-30T10:56:46;6.68;;;2.38;;
58954;SDS011;45815;52.334;5.024;2024-01-30T10:59:13;6.35;;;1.50;;
58954;SDS011;45815;52.334;5.024;2024-01-30T11:01:39;6.38;;;1.60;;
58954;SDS011;45815;52.334;5.024;2024-01-30T11:04:05;6.45;;;1.40;;
58954;SDS011;45815;52.334;5.024;2024-01-30T11:06:32;8.82;;;2.22;;
58954;SDS011;45815;52.334;5.024;2024-01-30T11:09:09;6.28;;;1.40;;
58954;SDS011;45815;52.334;5.024;2024-01-30T11:11:58;3.53;;;1.40;;
58954;SDS011;45815;52.334;5.024;2024-01-30T11:14:29;5.47;;;1.50;;
58954;SDS011;45815;52.334;5.024;2024-01-30T11:16:58;5.57;;;1.63;;
58954;SDS011;45815;52.334;5.024;2024-01-30T11:19:30;6.13;;;1.42;;
58954;SDS011;45815;52.334;5.024;2024-01-30T11:21:56;4.35;;;1.20;;
58954;SDS011;45815;52.334;5.024;2024-01-30T11:24:24;5.35;;;1.20;;
58954;SDS011;45815;52.334;5.024;2024-01-30T11:26:55;4.47;;;1.27;;
58954;SDS011;45815;52.334;5.024;2024-01-30T11:29:26;4.40;;;1.10;;
58954;SDS011;45815;52.334;5.024;2024-01-30T11:31:57;5.78;;;1.48;;
58954;SDS011;45815;52.334;5.024;2024-01-30T11:34:24;6.45;;;1.30;;
58954;SDS011;45815;52.334;5.024;2024-01-30T11:36:54;3.50;;;0.98;;
58954;SDS011;45815;52.334;5.024;2024-01-30T11:39:26;5.53;;;1.20;;
58954;SDS011;45815;52.334;5.024;2024-01-30T11:41:54;6.53;;;1.17;;
58954;SDS011;45815;52.334;5.024;2024-01-30T11:44:20;4.63;;;1.05;;
58954;SDS011;45815;52.334;5.024;2024-01-30T11:46:47;3.58;;;1.00;;
58954;SDS011;45815;52.334;5.024;2024-01-30T11:49:13;6.40;;;1.10;;
58954;SDS011;45815;52.334;5.024;2024-01-30T11:51:39;5.10;;;1.15;;
58954;SDS011;45815;52.334;5.024;2024-01-30T11:54:04;6.82;;;1.23;;
58954;SDS011;45815;52.334;5.024;2024-01-30T11:56:30;6.93;;;1.65;;
58954;SDS011;45815;52.334;5.024;2024-01-30T11:58:55;4.95;;;1.08;;
58954;SDS011;45815;52.334;5.024;2024-01-30T12:01:20;5.75;;;1.40;;
58954;SDS011;45815;52.334;5.024;2024-01-30T12:03:49;7.00;;;1.30;;
58954;SDS011;45815;52.334;5.024;2024-01-30T12:06:15;9.00;;;1.65;;
58954;SDS011;45815;52.334;5.024;2024-01-30T12:08:41;6.05;;;1.58;;
58954;SDS011;45815;52.334;5.024;2024-01-30T12:11:07;7.28;;;1.33;;
58954;SDS011;45815;52.334;5.024;2024-01-30T12:13:32;7.22;;;1.90;;
58954;SDS011;45815;52.334;5.024;2024-01-30T12:15:58;10.52;;;1.90;;
58954;SDS011;45815;52.334;5.024;2024-01-30T12:18:24;5.95;;;1.67;;
58954;SDS011;45815;52.334;5.024;2024-01-30T12:20:56;10.05;;;1.92;;
58954;SDS011;45815;52.334;5.024;2024-01-30T12:23:26;8.20;;;1.50;;
58954;SDS011;45815;52.334;5.024;2024-01-30T12:25:52;11.70;;;2.17;;
58954;SDS011;45815;52.334;5.024;2024-01-30T12:28:17;9.98;;;2.13;;
58954;SDS011;45815;52.334;5.024;2024-01-30T12:30:45;9.85;;;2.13;;
58954;SDS011;45815;52.334;5.024;2024-01-30T12:33:15;8.88;;;2.00;;
58954;SDS011;45815;52.334;5.024;2024-01-30T12:35:45;9.83;;;2.20;;
58954;SDS011;45815;52.334;5.024;2024-01-30T12:38:11;10.00;;;2.55;;
58954;SDS011;45815;52.334;5.024;2024-01-30T12:40:36;9.15;;;2.80;;
58954;SDS011;45815;52.334;5.024;2024-01-30T12:43:01;12.40;;;2.63;;
58954;SDS011;45815;52.334;5.024;2024-01-30T12:45:28;7.55;;;2.10;;
58954;SDS011;45815;52.334;5.024;2024-01-30T12:47:53;11.55;;;3.08;;
58954;SDS011;45815;52.334;5.024;2024-01-30T12:50:19;10.80;;;2.80;;
58954;SDS011;45815;52.334;5.024;2024-01-30T12:52:44;4.88;;;2.22;;
58954;SDS011;45815;52.334;5.024;2024-01-30T12:55:10;9.80;;;2.22;;
58954;SDS011;45815;52.334;5.024;2024-01-30T12:57:35;9.25;;;2.20;;
58954;SDS011;45815;52.334;5.024;2024-01-30T13:00:01;10.15;;;2.70;;
58954;SDS011;45815;52.334;5.024;2024-01-30T13:02:26;10.05;;;2.63;;
58954;SDS011;45815;52.334;5.024;2024-01-30T13:04:59;9.55;;;2.55;;
58954;SDS011;45815;52.334;5.024;2024-01-30T13:07:25;9.35;;;2.80;;
58954;SDS011;45815;52.334;5.024;2024-01-30T13:09:50;9.73;;;2.90;;
58954;SDS011;45815;52.334;5.024;2024-01-30T13:12:16;10.73;;;3.20;;
58954;SDS011;45815;52.334;5.024;2024-01-30T13:14:42;9.15;;;2.92;;
58954;SDS011;45815;52.334;5.024;2024-01-30T13:17:07;11.43;;;3.03;;
58954;SDS011;45815;52.334;5.024;2024-01-30T13:19:33;7.30;;;2.78;;
58954;SDS011;45815;52.334;5.024;2024-01-30T13:21:58;6.32;;;2.90;;
58954;SDS011;45815;52.334;5.024;2024-01-30T13:24:23;12.02;;;3.28;;
58954;SDS011;45815;52.334;5.024;2024-01-30T13:26:49;9.95;;;3.17;;
58954;SDS011;45815;52.334;5.024;2024-01-30T13:29:15;11.10;;;3.50;;
58954;SDS011;45815;52.334;5.024;2024-01-30T13:31:40;8.57;;;3.30;;
58954;SDS011;45815;52.334;5.024;2024-01-30T13:34:06;7.30;;;2.83;;
58954;SDS011;45815;52.334;5.024;2024-01-30T13:36:32;7.15;;;3.17;;
58954;SDS011;45815;52.334;5.024;2024-01-30T13:38:57;7.22;;;2.72;;
58954;SDS011;45815;52.334;5.024;2024-01-30T13:41:23;12.50;;;3.22;;
58954;SDS011;45815;52.334;5.024;2024-01-30T13:43:48;7.72;;;2.88;;
58954;SDS011;45815;52.334;5.024;2024-01-30T13:46:14;10.93;;;3.00;;
58954;SDS011;45815;52.334;5.024;2024-01-30T13:48:40;8.57;;;2.92;;
58954;SDS011;45815;52.334;5.024;2024-01-30T13:51:05;5.90;;;2.25;;
58954;SDS011;45815;52.334;5.024;2024-01-30T13:53:31;8.00;;;3.08;;
58954;SDS011;45815;52.334;5.024;2024-01-30T13:55:56;8.73;;;2.78;;
58954;SDS011;45815;52.334;5.024;2024-01-30T13:58:21;7.68;;;3.00;;
58954;SDS011;45815;52.334;5.024;2024-01-30T14:00:47;7.28;;;2.50;;
58954;SDS011;45815;52.334;5.024;2024-01-30T14:03:12;7.28;;;2.72;;
58954;SDS011;45815;52.334;5.024;2024-01-30T14:05:38;6.32;;;2.75;;
58954;SDS011;45815;52.334;5.024;2024-01-30T14:08:03;6.97;;;2.30;;
58954;SDS011;45815;52.334;5.024;2024-01-30T14:10:29;9.32;;;3.03;;
58954;SDS011;45815;52.334;5.024;2024-01-30T14:12:54;8.50;;;2.30;;
58954;SDS011;45815;52.334;5.024;2024-01-30T14:15:19;5.78;;;2.38;;
58954;SDS011;45815;52.334;5.024;2024-01-30T14:17:45;6.25;;;2.50;;
58954;SDS011;45815;52.334;5.024;2024-01-30T14:20:13;5.60;;;2.47;;
58954;SDS011;45815;52.334;5.024;2024-01-30T14:22:39;6.78;;;2.35;;
58954;SDS011;45815;52.334;5.024;2024-01-30T14:25:04;6.68;;;2.17;;
58954;SDS011;45815;52.334;5.024;2024-01-30T14:27:30;9.30;;;1.98;;
58954;SDS011;45815;52.334;5.024;2024-01-30T14:29:56;5.15;;;2.10;;
58954;SDS011;45815;52.334;5.024;2024-01-30T14:32:23;5.22;;;2.00;;